createdAt,value
2023-05-24T00:02:09.184Z,1.45
2023-05-24T00:04:36.199Z,0.90
2023-05-24T00:07:03.436Z,1.00
2023-05-24T00:09:30.938Z,2.85
2023-05-24T00:11:57.760Z,1.00
2023-05-24T00:14:25.594Z,1.00
2023-05-24T00:16:52.470Z,1.20
2023-05-24T00:19:22.477Z,1.58
2023-05-24T00:21:49.782Z,1.70
2023-05-24T00:24:18.090Z,1.13
2023-05-24T00:26:45.420Z,1.38
2023-05-24T00:29:12.226Z,1.15
2023-05-24T00:31:39.207Z,0.85
2023-05-24T00:34:06.462Z,1.23
2023-05-24T00:36:33.372Z,1.15
2023-05-24T00:39:00.558Z,0.90
2023-05-24T00:41:27.396Z,1.30
2023-05-24T00:43:54.274Z,0.90
2023-05-24T00:46:34.008Z,1.17
2023-05-24T00:49:01.694Z,1.20
2023-05-24T00:51:29.222Z,1.05
2023-05-24T00:53:56.553Z,1.15
2023-05-24T00:56:23.788Z,1.20
2023-05-24T00:58:55.946Z,1.17
2023-05-24T01:03:54.561Z,1.20
2023-05-24T01:06:22.101Z,0.90
2023-05-24T01:09:34.649Z,0.73
2023-05-24T01:12:41.584Z,1.00
2023-05-24T01:15:45.237Z,1.05
2023-05-24T01:18:26.251Z,1.00
2023-05-24T01:21:12.007Z,0.90
2023-05-24T01:24:18.062Z,0.85
2023-05-24T01:27:15.696Z,1.00
2023-05-24T01:29:43.016Z,1.00
2023-05-24T01:32:10.359Z,1.05
2023-05-24T01:34:37.194Z,0.90
2023-05-24T01:37:04.023Z,1.30
2023-05-24T01:39:30.972Z,0.85
2023-05-24T01:42:36.744Z,1.48
2023-05-24T01:45:18.628Z,1.20
2023-05-24T01:48:18.627Z,1.42
2023-05-24T01:51:07.413Z,1.13
2023-05-24T01:53:36.797Z,0.80
2023-05-24T01:56:06.656Z,1.00
2023-05-24T01:58:34.607Z,1.00
2023-05-24T02:01:02.738Z,0.80
2023-05-24T02:03:29.860Z,0.90
2023-05-24T02:05:56.671Z,1.25
2023-05-24T02:08:23.565Z,1.20
2023-05-24T02:10:50.417Z,1.13
2023-05-24T02:13:18.154Z,0.80
2023-05-24T02:15:45.095Z,0.95
2023-05-24T02:18:12.970Z,1.13
2023-05-24T02:20:40.748Z,0.80
2023-05-24T02:23:07.786Z,1.00
2023-05-24T02:25:34.622Z,0.82
2023-05-24T02:28:01.656Z,0.98
2023-05-24T02:30:28.472Z,1.08
2023-05-24T02:32:56.119Z,1.10
2023-05-24T02:35:23.183Z,0.90
2023-05-24T02:37:50.030Z,1.33
2023-05-24T02:40:17.026Z,1.08
2023-05-24T02:42:43.795Z,1.52
2023-05-24T02:45:11.079Z,1.42
2023-05-24T02:47:37.875Z,1.20
2023-05-24T02:50:06.213Z,1.38
2023-05-24T02:52:33.050Z,1.25
2023-05-24T02:54:59.883Z,1.08
2023-05-24T02:57:28.657Z,1.10
2023-05-24T02:59:56.043Z,0.90
2023-05-24T03:02:22.891Z,0.98
2023-05-24T03:04:49.733Z,0.90
2023-05-24T03:07:16.594Z,1.10
2023-05-24T03:09:43.427Z,1.10
2023-05-24T03:12:10.352Z,1.27
2023-05-24T03:14:37.206Z,0.95
2023-05-24T03:17:04.197Z,1.13
2023-05-24T03:19:31.178Z,0.85
2023-05-24T03:21:57.975Z,0.95
2023-05-24T03:24:26.003Z,1.10
2023-05-24T03:26:52.825Z,1.20
2023-05-24T03:29:19.654Z,1.25
2023-05-24T03:31:46.520Z,1.20
2023-05-24T03:34:13.404Z,0.90
2023-05-24T03:36:40.379Z,1.00
2023-05-24T03:39:07.713Z,0.88
2023-05-24T03:41:34.498Z,1.10
2023-05-24T03:44:01.300Z,1.30
2023-05-24T03:46:28.216Z,2.00
2023-05-24T03:48:55.216Z,1.17
2023-05-24T03:51:24.378Z,0.95
2023-05-24T03:53:51.156Z,1.27
2023-05-24T03:56:17.975Z,1.67
2023-05-24T03:58:44.744Z,1.52
2023-05-24T04:22:31.913Z,1.35
2023-05-24T04:24:58.789Z,1.25
2023-05-24T04:27:26.077Z,1.73
2023-05-24T04:29:53.468Z,1.58
2023-05-24T04:32:20.340Z,1.75
2023-05-24T04:34:47.225Z,2.35
2023-05-24T04:37:14.033Z,1.73
2023-05-24T04:39:41.641Z,2.03
2023-05-24T04:42:09.094Z,2.53
2023-05-24T04:44:35.871Z,2.50
2023-05-24T04:47:03.898Z,2.40
2023-05-24T04:49:30.847Z,2.83
2023-05-24T04:51:57.817Z,2.40
2023-05-24T04:54:24.613Z,3.10
2023-05-24T04:56:52.085Z,2.85
2023-05-24T04:59:18.940Z,3.28
2023-05-24T05:01:45.825Z,3.42
2023-05-24T05:04:12.717Z,3.72
2023-05-24T05:06:40.395Z,3.35
2023-05-24T05:09:13.275Z,2.83
2023-05-24T05:11:40.512Z,3.42
2023-05-24T05:14:09.594Z,3.42
2023-05-24T05:16:36.957Z,3.38
2023-05-24T05:19:06.985Z,3.22
2023-05-24T05:21:34.882Z,3.58
2023-05-24T05:24:02.788Z,3.17
2023-05-24T05:26:30.274Z,2.75
2023-05-24T05:28:58.069Z,2.90
2023-05-24T05:31:25.597Z,2.72
2023-05-24T05:33:52.655Z,2.95
2023-05-24T05:36:19.512Z,3.30
2023-05-24T05:38:46.561Z,3.00
2023-05-24T05:41:13.401Z,2.70
2023-05-24T05:43:40.398Z,3.28
2023-05-24T05:46:07.311Z,2.70
2023-05-24T05:48:34.264Z,3.60
2023-05-24T05:51:01.059Z,3.30
2023-05-24T05:53:27.853Z,3.10
2023-05-24T05:55:54.683Z,3.25
2023-05-24T05:58:21.469Z,3.55
2023-05-24T06:00:48.248Z,2.92
2023-05-24T06:03:15.266Z,2.90
2023-05-24T06:05:42.349Z,2.53
2023-05-24T06:08:09.274Z,3.50
2023-05-24T06:10:36.197Z,2.60
2023-05-24T06:13:04.449Z,2.80
2023-05-24T06:15:33.210Z,2.97
2023-05-24T06:18:02.147Z,3.15
2023-05-24T06:20:29.152Z,3.10
2023-05-24T06:22:56.996Z,3.20
2023-05-24T06:25:24.385Z,3.22
2023-05-24T06:27:51.759Z,3.08
2023-05-24T06:30:19.036Z,3.00
2023-05-24T06:32:46.085Z,3.47
2023-05-24T06:35:13.134Z,2.63
2023-05-24T06:37:40.954Z,3.03
2023-05-24T06:40:11.419Z,2.70
2023-05-24T06:42:39.558Z,2.47
2023-05-24T06:45:08.224Z,2.90
2023-05-24T06:47:35.477Z,2.55
2023-05-24T06:50:04.386Z,2.97
2023-05-24T06:52:31.217Z,3.08
2023-05-24T06:54:57.978Z,3.13
2023-05-24T06:57:25.226Z,3.05
2023-05-24T06:59:52.087Z,3.10
2023-05-24T07:02:18.947Z,3.15
2023-05-24T07:04:45.867Z,2.92
2023-05-24T07:07:14.116Z,2.70
2023-05-24T07:09:42.208Z,2.97
2023-05-24T07:12:09.489Z,3.00
2023-05-24T07:14:36.559Z,2.50
2023-05-24T07:17:03.542Z,2.65
2023-05-24T07:19:30.444Z,2.50
2023-05-24T07:21:57.332Z,2.78
2023-05-24T07:24:24.625Z,2.80
2023-05-24T07:26:53.492Z,2.92
2023-05-24T07:29:21.795Z,2.70
2023-05-24T07:31:48.854Z,2.72
2023-05-24T07:34:16.197Z,3.03
2023-05-24T07:36:42.982Z,2.60
2023-05-24T07:39:10.215Z,3.20
2023-05-24T07:41:37.273Z,3.08
2023-05-24T07:44:04.220Z,3.53
2023-05-24T07:46:31.204Z,3.03
2023-05-24T07:48:58.373Z,3.78
2023-05-24T07:51:26.556Z,3.33
2023-05-24T07:53:53.405Z,3.60
2023-05-24T07:56:20.294Z,3.33
2023-05-24T07:58:49.098Z,3.90
2023-05-24T08:01:15.911Z,3.33
2023-05-24T08:03:42.830Z,3.85
2023-05-24T08:06:10.053Z,3.67
2023-05-24T08:08:36.804Z,4.20
2023-05-24T08:11:03.653Z,3.63
2023-05-24T08:13:30.436Z,4.00
2023-05-24T08:15:58.490Z,3.40
2023-05-24T08:18:25.356Z,3.40
2023-05-24T08:20:52.154Z,3.05
2023-05-24T08:23:19.020Z,4.03
2023-05-24T08:25:46.161Z,3.40
2023-05-24T08:28:13.123Z,3.50
2023-05-24T08:30:40.422Z,2.83
2023-05-24T08:33:07.239Z,3.70
2023-05-24T08:35:35.904Z,3.90
2023-05-24T08:38:02.755Z,3.40
2023-05-24T08:40:29.560Z,2.50
2023-05-24T08:43:01.447Z,3.20
2023-05-24T08:45:32.929Z,2.97
2023-05-24T08:48:00.280Z,2.70
2023-05-24T08:50:29.073Z,2.90
2023-05-24T08:52:58.101Z,2.40
2023-05-24T08:55:25.171Z,2.83
2023-05-24T08:57:52.748Z,2.72
2023-05-24T09:00:20.290Z,3.20
2023-05-24T09:02:47.610Z,3.20
2023-05-24T09:05:17.142Z,2.90
2023-05-24T09:07:46.164Z,3.22
2023-05-24T09:10:13.254Z,2.83
2023-05-24T09:12:45.538Z,2.80
2023-05-24T09:15:12.459Z,3.65
2023-05-24T09:17:40.614Z,3.40
2023-05-24T09:20:10.708Z,2.53
2023-05-24T09:22:40.868Z,2.95
2023-05-24T09:25:10.855Z,2.58
2023-05-24T09:27:38.763Z,2.88
2023-05-24T09:30:10.807Z,2.63
2023-05-24T09:32:38.060Z,2.90
2023-05-24T09:35:10.320Z,3.05
2023-05-24T09:37:41.241Z,3.00
2023-05-24T09:40:19.945Z,3.20
2023-05-24T09:42:47.458Z,2.47
2023-05-24T09:45:14.900Z,2.67
2023-05-24T09:47:44.979Z,2.22
2023-05-24T09:50:20.077Z,3.03
2023-05-24T09:52:47.977Z,3.08
2023-05-24T09:55:23.335Z,3.42
2023-05-24T09:58:12.738Z,3.92
2023-05-24T10:00:41.606Z,3.70
2023-05-24T10:03:11.793Z,2.90
2023-05-24T10:05:44.573Z,2.80
2023-05-24T10:08:12.152Z,3.78
2023-05-24T10:10:38.897Z,3.22
2023-05-24T10:13:05.790Z,2.75
2023-05-24T10:15:32.607Z,2.80
2023-05-24T10:18:09.904Z,2.92
2023-05-24T10:20:41.285Z,3.22
2023-05-24T10:23:10.842Z,3.35
2023-05-24T10:25:51.045Z,3.42
2023-05-24T10:28:19.602Z,3.65
2023-05-24T10:31:00.140Z,3.42
2023-05-24T10:33:27.413Z,3.65
2023-05-24T10:35:54.861Z,3.45
2023-05-24T10:38:24.389Z,2.58
2023-05-24T10:40:51.515Z,2.88
2023-05-24T10:43:18.624Z,2.63
2023-05-24T10:45:50.587Z,3.00
2023-05-24T10:48:17.676Z,3.25
2023-05-24T10:50:45.295Z,2.38
2023-05-24T10:53:22.408Z,2.65
2023-05-24T10:56:00.371Z,3.22
2023-05-24T10:58:46.234Z,2.72
2023-05-24T11:01:33.504Z,3.42
2023-05-24T11:04:16.966Z,2.50
2023-05-24T11:06:48.258Z,3.55
2023-05-24T11:09:20.228Z,3.50
2023-05-24T11:11:50.709Z,2.47
2023-05-24T11:14:35.220Z,2.67
2023-05-24T11:17:02.162Z,3.15
2023-05-24T11:19:45.213Z,2.88
2023-05-24T11:22:14.811Z,3.03
2023-05-24T11:24:42.731Z,2.42
2023-05-24T11:27:13.012Z,2.60
2023-05-24T11:29:45.182Z,3.33
2023-05-24T11:32:20.684Z,2.83
2023-05-24T11:34:48.979Z,2.40
2023-05-24T11:37:18.060Z,2.42
2023-05-24T11:39:52.363Z,3.08
2023-05-24T11:42:21.002Z,2.80
2023-05-24T11:44:50.142Z,2.58
2023-05-24T11:47:16.943Z,2.90
2023-05-24T11:49:43.707Z,2.38
2023-05-24T11:52:10.553Z,2.17
2023-05-24T11:54:38.768Z,2.17
2023-05-24T11:57:05.971Z,2.53
2023-05-24T11:59:32.859Z,2.40
2023-05-24T12:02:05.724Z,2.53
2023-05-24T12:04:34.507Z,2.65
2023-05-24T12:07:02.932Z,2.63
2023-05-24T12:09:30.062Z,2.83
2023-05-24T12:11:58.159Z,2.53
2023-05-24T12:14:30.930Z,2.60
2023-05-24T12:16:58.312Z,3.67
2023-05-24T12:19:33.737Z,2.30
2023-05-24T12:22:05.076Z,2.50
2023-05-24T12:24:32.722Z,2.47
2023-05-24T12:27:03.119Z,2.85
2023-05-24T12:29:35.548Z,2.20
2023-05-24T12:32:03.001Z,2.72
2023-05-24T12:34:30.095Z,2.85
2023-05-24T12:36:57.022Z,2.80
2023-05-24T12:39:31.535Z,3.03
2023-05-24T12:42:01.422Z,2.80
2023-05-24T12:44:35.409Z,2.75
2023-05-24T12:47:05.227Z,2.13
2023-05-24T12:49:32.635Z,2.92
2023-05-24T12:51:59.772Z,2.50
2023-05-24T12:54:28.434Z,2.05
2023-05-24T12:56:57.716Z,2.80
2023-05-24T12:59:26.003Z,2.70
2023-05-24T13:01:53.141Z,3.75
2023-05-24T13:04:22.280Z,2.83
2023-05-24T13:06:49.294Z,2.28
2023-05-24T13:09:21.774Z,2.70
2023-05-24T13:11:48.924Z,2.50
2023-05-24T13:14:16.758Z,2.83
2023-05-24T13:16:44.279Z,2.42
2023-05-24T13:19:11.771Z,2.22
2023-05-24T13:21:39.155Z,2.92
2023-05-24T13:24:06.741Z,2.25
2023-05-24T13:26:37.273Z,2.40
2023-05-24T13:31:37.898Z,2.08
2023-05-24T13:34:05.601Z,1.52
2023-05-24T13:36:32.929Z,2.22
2023-05-24T13:39:14.182Z,2.45
2023-05-24T13:41:42.891Z,2.05
2023-05-24T13:44:10.420Z,2.03
2023-05-24T13:46:38.239Z,2.30
2023-05-24T13:49:05.821Z,2.00
2023-05-24T13:51:33.408Z,1.85
2023-05-24T13:54:01.089Z,2.20
2023-05-24T13:56:32.844Z,1.88
2023-05-24T13:59:04.307Z,2.30
2023-05-24T14:01:31.857Z,2.58
2023-05-24T14:04:00.723Z,2.15
2023-05-24T14:06:27.498Z,1.60
2023-05-24T14:08:54.293Z,1.92
2023-05-24T14:11:22.260Z,1.88
2023-05-24T14:16:18.948Z,2.38
2023-05-24T14:18:48.744Z,2.33
2023-05-24T14:21:15.633Z,2.00
2023-05-24T14:23:42.540Z,2.30
2023-05-24T14:26:09.368Z,2.40
2023-05-24T14:28:36.508Z,2.38
2023-05-24T14:31:03.534Z,2.03
2023-05-24T14:33:30.496Z,2.22
2023-05-24T14:35:57.467Z,2.80
2023-05-24T14:38:25.363Z,2.33
2023-05-24T14:40:52.218Z,2.25
2023-05-24T14:43:19.128Z,2.67
2023-05-24T14:45:46.040Z,2.20
2023-05-24T14:48:13.471Z,2.33
2023-05-24T14:50:41.580Z,2.22
2023-05-24T14:53:11.610Z,2.33
2023-05-24T14:55:41.427Z,2.33
2023-05-24T14:58:09.173Z,2.35
2023-05-24T15:00:36.645Z,2.45
2023-05-24T15:03:05.916Z,1.92
2023-05-24T15:05:33.132Z,2.50
2023-05-24T15:08:00.129Z,2.50
2023-05-24T15:10:26.971Z,2.35
2023-05-24T15:12:53.846Z,2.20
2023-05-24T15:15:22.685Z,2.67
2023-05-24T15:17:49.637Z,2.28
2023-05-24T15:20:16.703Z,2.33
2023-05-24T15:22:43.680Z,2.92
2023-05-24T15:25:11.315Z,2.40
2023-05-24T15:27:38.653Z,3.00
2023-05-24T15:30:07.318Z,2.63
2023-05-24T15:32:34.443Z,2.83
2023-05-24T15:35:01.373Z,2.17
2023-05-24T15:37:28.497Z,2.35
2023-05-24T15:39:55.360Z,2.50
2023-05-24T15:42:24.446Z,2.60
2023-05-24T15:44:51.592Z,2.30
2023-05-24T15:47:21.275Z,2.88
2023-05-24T15:49:49.775Z,2.45
2023-05-24T15:52:16.912Z,2.47
2023-05-24T15:54:43.897Z,2.85
2023-05-24T15:57:10.946Z,2.50
2023-05-24T15:59:38.543Z,2.70
2023-05-24T16:02:08.835Z,2.88
2023-05-24T16:04:35.807Z,2.05
2023-05-24T16:07:02.766Z,2.50
2023-05-24T16:09:29.600Z,3.15
2023-05-24T16:11:56.460Z,2.95
2023-05-24T16:14:23.272Z,2.50
2023-05-24T16:16:50.121Z,2.83
2023-05-24T16:19:17.014Z,2.78
2023-05-24T16:21:43.933Z,2.50
2023-05-24T16:24:10.846Z,2.63
2023-05-24T16:26:37.805Z,2.90
2023-05-24T16:29:06.888Z,2.50
2023-05-24T16:31:33.742Z,2.40
2023-05-24T16:34:01.184Z,2.47
2023-05-24T16:36:28.219Z,2.50
2023-05-24T16:38:55.083Z,2.70
2023-05-24T16:41:21.992Z,2.40
2023-05-24T16:43:48.991Z,2.40
2023-05-24T16:46:15.908Z,2.60
2023-05-24T16:48:42.906Z,2.30
2023-05-24T16:51:09.739Z,2.30
2023-05-24T16:53:36.691Z,2.00
2023-05-24T16:56:03.503Z,2.47
2023-05-24T16:58:30.792Z,2.50
2023-05-24T17:00:58.345Z,2.30
2023-05-24T17:03:28.700Z,2.38
2023-05-24T17:06:01.107Z,2.47
2023-05-24T17:08:30.017Z,2.35
2023-05-24T17:10:57.071Z,2.58
2023-05-24T17:13:24.217Z,2.67
2023-05-24T17:15:55.081Z,2.63
2023-05-24T17:18:29.873Z,2.57
2023-05-24T17:21:04.811Z,2.50
2023-05-24T17:23:34.763Z,2.20
2023-05-24T17:26:02.871Z,2.45
2023-05-24T17:28:30.525Z,2.22
2023-05-24T17:31:00.713Z,2.30
2023-05-24T17:33:30.088Z,2.50
2023-05-24T17:35:57.750Z,2.50
2023-05-24T17:38:25.579Z,2.00
2023-05-24T17:40:58.951Z,2.28
2023-05-24T17:43:29.000Z,2.20
2023-05-24T17:46:05.847Z,2.22
2023-05-24T17:48:37.327Z,2.20
2023-05-24T17:51:09.367Z,2.28
2023-05-24T17:53:38.030Z,1.80
2023-05-24T17:56:06.427Z,2.15
2023-05-24T17:58:36.322Z,2.05
2023-05-24T18:01:05.401Z,2.42
2023-05-24T18:03:33.552Z,2.10
2023-05-24T18:06:01.128Z,2.20
2023-05-24T18:08:28.016Z,2.25
2023-05-24T18:10:54.788Z,1.90
2023-05-24T18:13:21.688Z,2.17
2023-05-24T18:15:50.031Z,2.17
2023-05-24T18:18:17.621Z,2.35
2023-05-24T18:20:44.594Z,2.22
2023-05-24T18:23:11.822Z,1.83
2023-05-24T18:25:38.639Z,2.08
2023-05-24T18:28:05.595Z,1.92
2023-05-24T18:30:32.452Z,1.73
2023-05-24T18:33:06.908Z,1.92
2023-05-24T18:35:34.798Z,1.90
2023-05-24T18:38:01.643Z,1.67
2023-05-24T18:40:28.421Z,1.30
2023-05-24T18:42:55.199Z,2.05
2023-05-24T18:45:22.699Z,2.15
2023-05-24T18:47:49.573Z,2.28
2023-05-24T18:50:17.031Z,1.70
2023-05-24T18:52:43.866Z,2.05
2023-05-24T18:55:10.851Z,1.98
2023-05-24T18:57:38.379Z,1.80
2023-05-24T19:00:07.199Z,1.63
2023-05-24T19:02:39.063Z,2.15
2023-05-24T19:05:07.434Z,1.95
2023-05-24T19:07:37.701Z,1.88
2023-05-24T19:10:05.303Z,1.92
2023-05-24T19:12:32.160Z,2.22
2023-05-24T19:15:00.277Z,1.88
2023-05-24T19:17:27.113Z,1.67
2023-05-24T19:19:54.147Z,1.80
2023-05-24T19:22:20.986Z,1.90
2023-05-24T19:24:47.975Z,2.30
2023-05-24T19:27:14.801Z,1.98
2023-05-24T19:29:41.751Z,2.00
2023-05-24T19:32:08.861Z,2.15
2023-05-24T19:34:37.106Z,2.25
2023-05-24T19:37:04.359Z,1.95
2023-05-24T19:39:31.175Z,1.77
2023-05-24T19:41:57.961Z,1.75
2023-05-24T19:44:24.777Z,2.13
2023-05-24T19:46:51.603Z,1.75
2023-05-24T19:49:18.454Z,2.22
2023-05-24T19:51:45.403Z,2.00
2023-05-24T19:54:12.804Z,1.85
2023-05-24T19:56:39.620Z,2.33
2023-05-24T19:59:06.370Z,2.30
2023-05-24T20:01:33.284Z,2.22
2023-05-24T20:04:00.198Z,1.92
2023-05-24T20:06:27.454Z,2.30
2023-05-24T20:08:55.595Z,2.53
2023-05-24T20:11:22.444Z,2.10
2023-05-24T20:13:49.420Z,2.25
2023-05-24T20:16:16.566Z,2.42
2023-05-24T20:18:43.381Z,2.55
2023-05-24T20:21:11.135Z,2.03
2023-05-24T20:23:37.930Z,1.98
2023-05-24T20:26:04.899Z,1.95
2023-05-24T20:28:32.145Z,2.15
2023-05-24T20:30:59.254Z,1.92
2023-05-24T20:33:26.168Z,2.10
2023-05-24T20:35:54.024Z,2.35
2023-05-24T20:38:22.014Z,2.22
2023-05-24T20:40:48.889Z,2.22
2023-05-24T20:43:15.763Z,2.35
2023-05-24T20:45:42.807Z,2.10
2023-05-24T20:48:09.742Z,2.63
2023-05-24T20:50:37.005Z,2.20
2023-05-24T20:53:03.796Z,2.42
2023-05-24T20:55:31.387Z,2.38
2023-05-24T20:57:58.176Z,2.03
2023-05-24T21:00:25.010Z,2.25
2023-05-24T21:02:51.933Z,2.13
2023-05-24T21:05:18.806Z,2.30
2023-05-24T21:07:45.917Z,2.35
2023-05-24T21:10:18.537Z,2.88
2023-05-24T21:12:47.876Z,2.10
2023-05-24T21:15:14.859Z,2.42
2023-05-24T21:17:41.729Z,2.45
2023-05-24T21:20:09.268Z,2.20
2023-05-24T21:22:36.060Z,2.42
2023-05-24T21:25:02.950Z,2.00
2023-05-24T21:27:29.779Z,2.20
2023-05-24T21:29:56.577Z,2.50
2023-05-24T21:32:23.365Z,2.33
2023-05-24T21:34:50.218Z,2.72
2023-05-24T21:37:17.531Z,2.97
2023-05-24T21:39:44.580Z,2.67
2023-05-24T21:42:11.419Z,2.22
2023-05-24T21:44:38.192Z,3.00
2023-05-24T21:47:05.485Z,2.30
2023-05-24T21:49:32.288Z,2.45
2023-05-24T21:51:59.157Z,2.65
2023-05-24T21:54:25.994Z,2.67
2023-05-24T21:56:52.751Z,2.50
2023-05-24T21:59:21.225Z,2.20
2023-05-24T22:01:48.588Z,2.22
2023-05-24T22:04:15.668Z,2.85
2023-05-24T22:06:44.724Z,2.22
2023-05-24T22:09:13.542Z,2.50
2023-05-24T22:11:41.275Z,2.85
2023-05-24T22:14:08.145Z,2.03
2023-05-24T22:16:34.972Z,2.65
2023-05-24T22:19:03.092Z,2.47
2023-05-24T22:21:33.175Z,2.05
2023-05-24T22:24:00.573Z,2.60
2023-05-24T22:26:27.897Z,2.42
2023-05-24T22:29:00.329Z,2.60
2023-05-24T22:31:33.125Z,2.78
2023-05-24T22:34:03.461Z,2.92
2023-05-24T22:36:33.370Z,2.10
2023-05-24T22:39:01.570Z,2.38
2023-05-24T22:41:28.835Z,2.85
2023-05-24T22:43:57.016Z,2.92
2023-05-24T22:46:24.733Z,2.35
2023-05-24T22:48:52.739Z,2.40
2023-05-24T22:51:22.837Z,2.40
2023-05-24T22:53:49.683Z,2.80
2023-05-24T22:56:17.861Z,2.50
2023-05-24T22:58:44.659Z,2.55
2023-05-24T23:01:11.647Z,1.85
2023-05-24T23:03:38.647Z,2.75
2023-05-24T23:06:05.725Z,2.47
2023-05-24T23:08:33.019Z,2.45
2023-05-24T23:11:00.536Z,2.47
2023-05-24T23:13:35.861Z,2.47
2023-05-24T23:16:05.253Z,2.13
2023-05-24T23:18:32.879Z,2.90
2023-05-24T23:21:00.830Z,2.20
2023-05-24T23:23:27.806Z,2.70
2023-05-24T23:25:54.646Z,2.63
2023-05-24T23:28:21.411Z,2.38
2023-05-24T23:30:48.324Z,2.65
2023-05-24T23:33:15.467Z,2.30
2023-05-24T23:35:42.423Z,2.55
2023-05-24T23:38:09.363Z,2.55
2023-05-24T23:40:36.516Z,2.65
2023-05-24T23:43:04.169Z,2.83
2023-05-24T23:45:31.448Z,2.47
2023-05-24T23:47:58.924Z,2.53
2023-05-24T23:50:27.303Z,2.63
2023-05-24T23:52:54.956Z,2.90
2023-05-24T23:55:23.160Z,2.47
2023-05-24T23:57:50.269Z,2.50
